Aviation Digital Data Service (ADDS)

Output produced by METARs form (2235 UTC 30 March 2017)
found at http://www.aviationweather.gov/adds/metars/
 
TAF TXKF 301731Z 3018/3118 35015KT 9999 FEW030 BKN050 
     BECMG 3115/3118 30005KT